Evansville Regional (EVV)

 

Airport Diagram
Current Weather/Forecast (VFR Conditions)
METAR KEVV 182354Z 33010G19KT 6SM -RA OVC055 11/06 A2992 RMK AO2 RAB09 SLP133 P0001 60009 T01110061 10189 20111 50004 $
TAF KEVV 182320Z 1900/1924 VRB05KT P6SM VCSH BKN050 TEMPO 1900/1902 6SM -SHRA FM190300 VRB04KT P6SM SCT080

Airport Information

All Charts
General
Chart Name View
AIRPORT DIAGRAM
AIRPORT DIAGRAM
TAKEOFF MINIMUMS
ALTERNATE MINIMUMS
RADAR MINIMUMS
TAKEOFF MINIMUMS
ALTERNATE MINIMUMS
RADAR MINIMUMS
HOT SPOT
HOT SPOT

Approaches
Chart Name Download
ILS OR LOC RWY 04
ILS OR LOC RWY 22
RNAV (GPS) RWY 04
RNAV (GPS) RWY 18
RNAV (GPS) RWY 22
RNAV (GPS) RWY 36
VOR RWY 04
ILS OR LOC RWY 04
ILS OR LOC RWY 22
RNAV (GPS) RWY 04
RNAV (GPS) RWY 18
RNAV (GPS) RWY 22
RNAV (GPS) RWY 36
VOR RWY 04


Airport Statistics
Departures Arrivals Local
All Collected Stats since June 2016: 216 186 22
2021 Stats: 72 43 15
April Stats: 24 14 10

Inbound Traffic (Arrivals) - 1
Callsign Aircraft Rules Departure Route
AAL5122 A320/L IFR KIND +OOM5 PXV

Outbound Traffic (Departures) - 0

No outbound traffic.


Local Traffic (Pattern) - 0

No local traffic.